sensor_id;sensor_type;location;lat;lon;timestamp;temperature;humidity
76567;DHT22;65428;53.194;6.132;2023-07-13T00:00:24;16.70;99.90
76567;DHT22;65428;53.194;6.132;2023-07-13T00:02:50;17.40;99.90
76567;DHT22;65428;53.194;6.132;2023-07-13T00:05:21;17.30;99.90
76567;DHT22;65428;53.194;6.132;2023-07-13T00:07:47;17.40;99.90
76567;DHT22;65428;53.194;6.132;2023-07-13T00:10:14;17.10;99.90
76567;DHT22;65428;53.194;6.132;2023-07-13T00:12:40;17.70;99.90
76567;DHT22;65428;53.194;6.132;2023-07-13T00:15:19;17.40;99.90
76567;DHT22;65428;53.194;6.132;2023-07-13T00:17:53;16.80;99.90
76567;DHT22;65428;53.194;6.132;2023-07-13T00:20:24;17.40;99.90
76567;DHT22;65428;53.194;6.132;2023-07-13T00:22:52;17.80;99.90
76567;DHT22;65428;53.194;6.132;2023-07-13T00:25:26;17.20;99.90
76567;DHT22;65428;53.194;6.132;2023-07-13T00:27:54;17.00;99.90
76567;DHT22;65428;53.194;6.132;2023-07-13T00:30:22;17.00;99.90
76567;DHT22;65428;53.194;6.132;2023-07-13T00:32:49;16.90;99.90
76567;DHT22;65428;53.194;6.132;2023-07-13T00:35:15;17.10;99.90
76567;DHT22;65428;53.194;6.132;2023-07-13T00:37:41;17.30;99.90
76567;DHT22;65428;53.194;6.132;2023-07-13T00:40:09;17.20;99.90
76567;DHT22;65428;53.194;6.132;2023-07-13T00:42:35;16.90;99.90
76567;DHT22;65428;53.194;6.132;2023-07-13T00:46:10;17.30;99.90
76567;DHT22;65428;53.194;6.132;2023-07-13T00:47:55;16.80;99.90
76567;DHT22;65428;53.194;6.132;2023-07-13T00:50:23;17.00;99.90
76567;DHT22;65428;53.194;6.132;2023-07-13T00:52:52;16.80;99.90
76567;DHT22;65428;53.194;6.132;2023-07-13T00:55:20;17.30;99.90
76567;DHT22;65428;53.194;6.132;2023-07-13T00:57:46;16.70;99.90
76567;DHT22;65428;53.194;6.132;2023-07-13T01:00:13;16.70;99.90
76567;DHT22;65428;53.194;6.132;2023-07-13T01:02:41;16.60;99.90
76567;DHT22;65428;53.194;6.132;2023-07-13T01:05:13;16.40;99.90
76567;DHT22;65428;53.194;6.132;2023-07-13T01:07:41;16.60;99.90
76567;DHT22;65428;53.194;6.132;2023-07-13T01:10:08;17.00;99.90
76567;DHT22;65428;53.194;6.132;2023-07-13T01:12:34;16.90;99.90
76567;DHT22;65428;53.194;6.132;2023-07-13T01:15:01;16.90;99.90
76567;DHT22;65428;53.194;6.132;2023-07-13T01:17:28;16.90;99.90
76567;DHT22;65428;53.194;6.132;2023-07-13T01:19:55;16.70;99.90
76567;DHT22;65428;53.194;6.132;2023-07-13T01:22:21;16.90;99.90
76567;DHT22;65428;53.194;6.132;2023-07-13T01:24:52;16.30;99.90
76567;DHT22;65428;53.194;6.132;2023-07-13T01:27:25;16.60;99.90
76567;DHT22;65428;53.194;6.132;2023-07-13T01:29:53;16.90;99.90
76567;DHT22;65428;53.194;6.132;2023-07-13T01:32:22;16.90;99.90
76567;DHT22;65428;53.194;6.132;2023-07-13T01:34:50;16.60;99.90
76567;DHT22;65428;53.194;6.132;2023-07-13T01:37:17;16.50;99.90
76567;DHT22;65428;53.194;6.132;2023-07-13T01:39:43;16.50;99.90
76567;DHT22;65428;53.194;6.132;2023-07-13T01:42:09;17.00;99.90
76567;DHT22;65428;53.194;6.132;2023-07-13T01:44:35;16.30;99.90
76567;DHT22;65428;53.194;6.132;2023-07-13T01:47:01;16.50;99.90
76567;DHT22;65428;53.194;6.132;2023-07-13T01:49:27;16.30;99.90
76567;DHT22;65428;53.194;6.132;2023-07-13T01:51:53;16.50;99.90
76567;DHT22;65428;53.194;6.132;2023-07-13T01:54:18;16.40;99.90
76567;DHT22;65428;53.194;6.132;2023-07-13T01:56:44;17.10;99.90
76567;DHT22;65428;53.194;6.132;2023-07-13T01:59:10;16.30;99.90
76567;DHT22;65428;53.194;6.132;2023-07-13T02:01:36;16.10;99.90
76567;DHT22;65428;53.194;6.132;2023-07-13T02:04:03;16.00;99.90
76567;DHT22;65428;53.194;6.132;2023-07-13T02:06:29;15.90;99.90
76567;DHT22;65428;53.194;6.132;2023-07-13T02:08:55;15.80;99.90
76567;DHT22;65428;53.194;6.132;2023-07-13T02:11:21;16.20;99.90
76567;DHT22;65428;53.194;6.132;2023-07-13T02:13:47;15.80;99.90
76567;DHT22;65428;53.194;6.132;2023-07-13T02:16:12;16.10;99.90
76567;DHT22;65428;53.194;6.132;2023-07-13T02:18:38;16.00;99.90
76567;DHT22;65428;53.194;6.132;2023-07-13T02:21:04;16.10;99.90
76567;DHT22;65428;53.194;6.132;2023-07-13T02:23:30;15.80;99.90
76567;DHT22;65428;53.194;6.132;2023-07-13T02:25:58;16.10;99.90
76567;DHT22;65428;53.194;6.132;2023-07-13T02:28:24;15.90;99.90
76567;DHT22;65428;53.194;6.132;2023-07-13T02:30:50;15.80;99.90
76567;DHT22;65428;53.194;6.132;2023-07-13T02:33:16;15.80;99.90
76567;DHT22;65428;53.194;6.132;2023-07-13T02:35:41;15.70;99.90
76567;DHT22;65428;53.194;6.132;2023-07-13T02:38:07;16.00;99.90
76567;DHT22;65428;53.194;6.132;2023-07-13T02:40:36;15.80;99.90
76567;DHT22;65428;53.194;6.132;2023-07-13T02:43:02;15.60;99.90
76567;DHT22;65428;53.194;6.132;2023-07-13T02:45:29;15.80;99.90
76567;DHT22;65428;53.194;6.132;2023-07-13T02:47:54;15.50;99.90
76567;DHT22;65428;53.194;6.132;2023-07-13T02:50:20;15.50;99.90
76567;DHT22;65428;53.194;6.132;2023-07-13T02:52:46;15.50;99.90
76567;DHT22;65428;53.194;6.132;2023-07-13T02:55:12;15.30;99.90
76567;DHT22;65428;53.194;6.132;2023-07-13T02:57:38;16.20;99.90
76567;DHT22;65428;53.194;6.132;2023-07-13T03:00:05;15.50;99.90
76567;DHT22;65428;53.194;6.132;2023-07-13T03:02:32;15.40;99.90
76567;DHT22;65428;53.194;6.132;2023-07-13T03:04:58;15.50;99.90
76567;DHT22;65428;53.194;6.132;2023-07-13T03:07:24;15.50;99.90
76567;DHT22;65428;53.194;6.132;2023-07-13T03:09:57;15.40;99.90
76567;DHT22;65428;53.194;6.132;2023-07-13T03:12:23;15.30;99.90
76567;DHT22;65428;53.194;6.132;2023-07-13T03:14:49;15.60;99.90
76567;DHT22;65428;53.194;6.132;2023-07-13T03:17:15;16.00;99.90
76567;DHT22;65428;53.194;6.132;2023-07-13T03:19:41;15.90;99.90
76567;DHT22;65428;53.194;6.132;2023-07-13T03:22:07;16.20;99.90
76567;DHT22;65428;53.194;6.132;2023-07-13T03:24:34;15.90;99.90
76567;DHT22;65428;53.194;6.132;2023-07-13T03:27:03;15.90;99.90
76567;DHT22;65428;53.194;6.132;2023-07-13T03:29:29;15.50;99.90
76567;DHT22;65428;53.194;6.132;2023-07-13T03:31:55;15.50;99.90
76567;DHT22;65428;53.194;6.132;2023-07-13T03:34:21;15.70;99.90
76567;DHT22;65428;53.194;6.132;2023-07-13T03:36:47;15.40;99.90
76567;DHT22;65428;53.194;6.132;2023-07-13T03:39:13;15.80;99.90
76567;DHT22;65428;53.194;6.132;2023-07-13T03:41:39;15.40;99.90
76567;DHT22;65428;53.194;6.132;2023-07-13T03:44:05;15.70;99.90
76567;DHT22;65428;53.194;6.132;2023-07-13T03:46:30;16.00;99.90
76567;DHT22;65428;53.194;6.132;2023-07-13T03:48:57;15.50;99.90
76567;DHT22;65428;53.194;6.132;2023-07-13T03:51:23;15.40;99.90
76567;DHT22;65428;53.194;6.132;2023-07-13T03:53:49;15.50;99.90
76567;DHT22;65428;53.194;6.132;2023-07-13T03:56:17;15.50;99.90
76567;DHT22;65428;53.194;6.132;2023-07-13T03:58:45;15.20;99.90
76567;DHT22;65428;53.194;6.132;2023-07-13T04:01:13;15.50;99.90
76567;DHT22;65428;53.194;6.132;2023-07-13T04:03:39;15.40;99.90
76567;DHT22;65428;53.194;6.132;2023-07-13T04:06:08;15.20;99.90
76567;DHT22;65428;53.194;6.132;2023-07-13T04:08:35;15.90;99.90
76567;DHT22;65428;53.194;6.132;2023-07-13T04:11:03;15.10;99.90
76567;DHT22;65428;53.194;6.132;2023-07-13T04:13:29;15.30;99.90
76567;DHT22;65428;53.194;6.132;2023-07-13T04:15:55;15.40;99.90
76567;DHT22;65428;53.194;6.132;2023-07-13T04:18:21;15.20;99.90
76567;DHT22;65428;53.194;6.132;2023-07-13T04:20:48;15.60;99.90
76567;DHT22;65428;53.194;6.132;2023-07-13T04:23:16;15.60;99.90
76567;DHT22;65428;53.194;6.132;2023-07-13T04:25:46;15.10;99.90
76567;DHT22;65428;53.194;6.132;2023-07-13T04:28:12;15.50;99.90
76567;DHT22;65428;53.194;6.132;2023-07-13T04:30:38;15.40;99.90
76567;DHT22;65428;53.194;6.132;2023-07-13T04:33:04;15.50;99.90
76567;DHT22;65428;53.194;6.132;2023-07-13T04:35:30;15.40;99.90
76567;DHT22;65428;53.194;6.132;2023-07-13T04:37:57;15.90;99.90
76567;DHT22;65428;53.194;6.132;2023-07-13T04:40:23;15.70;99.90
76567;DHT22;65428;53.194;6.132;2023-07-13T04:42:49;15.70;99.90
76567;DHT22;65428;53.194;6.132;2023-07-13T04:45:15;16.20;99.90
76567;DHT22;65428;53.194;6.132;2023-07-13T04:47:41;16.10;99.90
76567;DHT22;65428;53.194;6.132;2023-07-13T04:50:08;16.00;99.90
76567;DHT22;65428;53.194;6.132;2023-07-13T04:52:36;16.30;99.90
76567;DHT22;65428;53.194;6.132;2023-07-13T04:55:02;16.70;99.90
76567;DHT22;65428;53.194;6.132;2023-07-13T04:57:28;16.50;99.90
76567;DHT22;65428;53.194;6.132;2023-07-13T04:59:54;16.70;99.90
76567;DHT22;65428;53.194;6.132;2023-07-13T05:02:20;16.70;99.90
76567;DHT22;65428;53.194;6.132;2023-07-13T05:04:49;17.30;99.90
76567;DHT22;65428;53.194;6.132;2023-07-13T05:07:16;17.20;99.90
76567;DHT22;65428;53.194;6.132;2023-07-13T05:09:41;17.20;99.90
76567;DHT22;65428;53.194;6.132;2023-07-13T05:12:09;17.90;99.90
76567;DHT22;65428;53.194;6.132;2023-07-13T05:14:35;17.30;99.90
76567;DHT22;65428;53.194;6.132;2023-07-13T05:17:01;18.20;99.90
76567;DHT22;65428;53.194;6.132;2023-07-13T05:19:27;17.80;99.90
76567;DHT22;65428;53.194;6.132;2023-07-13T05:21:53;17.60;99.90
76567;DHT22;65428;53.194;6.132;2023-07-13T05:24:19;17.70;99.90
76567;DHT22;65428;53.194;6.132;2023-07-13T05:26:45;17.80;99.90
76567;DHT22;65428;53.194;6.132;2023-07-13T05:29:11;17.90;99.90
76567;DHT22;65428;53.194;6.132;2023-07-13T05:31:37;18.00;99.90
76567;DHT22;65428;53.194;6.132;2023-07-13T05:34:03;17.90;99.90
76567;DHT22;65428;53.194;6.132;2023-07-13T05:36:29;18.40;99.90
76567;DHT22;65428;53.194;6.132;2023-07-13T05:38:55;18.30;99.90
76567;DHT22;65428;53.194;6.132;2023-07-13T05:41:20;18.40;99.90
76567;DHT22;65428;53.194;6.132;2023-07-13T05:43:46;18.80;99.90
76567;DHT22;65428;53.194;6.132;2023-07-13T05:46:12;18.60;99.90
76567;DHT22;65428;53.194;6.132;2023-07-13T05:48:38;18.70;99.90
76567;DHT22;65428;53.194;6.132;2023-07-13T05:51:04;19.00;99.90
76567;DHT22;65428;53.194;6.132;2023-07-13T05:53:30;19.00;99.90
76567;DHT22;65428;53.194;6.132;2023-07-13T05:55:56;19.00;99.90
76567;DHT22;65428;53.194;6.132;2023-07-13T05:58:22;19.00;99.90
76567;DHT22;65428;53.194;6.132;2023-07-13T06:00:48;19.30;99.90
76567;DHT22;65428;53.194;6.132;2023-07-13T06:03:15;19.60;99.90
76567;DHT22;65428;53.194;6.132;2023-07-13T06:05:41;19.30;99.90
76567;DHT22;65428;53.194;6.132;2023-07-13T06:08:08;19.40;99.90
76567;DHT22;65428;53.194;6.132;2023-07-13T06:10:35;20.20;99.90
76567;DHT22;65428;53.194;6.132;2023-07-13T06:13:01;19.50;99.90
76567;DHT22;65428;53.194;6.132;2023-07-13T06:15:27;19.50;99.90
76567;DHT22;65428;53.194;6.132;2023-07-13T06:17:53;19.70;99.90
76567;DHT22;65428;53.194;6.132;2023-07-13T06:20:18;19.60;99.90
76567;DHT22;65428;53.194;6.132;2023-07-13T06:22:44;20.00;99.90
76567;DHT22;65428;53.194;6.132;2023-07-13T06:25:10;19.70;99.90
76567;DHT22;65428;53.194;6.132;2023-07-13T06:27:36;19.80;99.90
76567;DHT22;65428;53.194;6.132;2023-07-13T06:30:02;19.80;99.90
76567;DHT22;65428;53.194;6.132;2023-07-13T06:32:28;19.90;99.90
76567;DHT22;65428;53.194;6.132;2023-07-13T06:34:54;19.90;99.90
76567;DHT22;65428;53.194;6.132;2023-07-13T06:37:20;20.40;99.90
76567;DHT22;65428;53.194;6.132;2023-07-13T06:39:46;20.10;99.90
76567;DHT22;65428;53.194;6.132;2023-07-13T06:42:12;20.50;99.90
76567;DHT22;65428;53.194;6.132;2023-07-13T06:44:38;20.10;99.90
76567;DHT22;65428;53.194;6.132;2023-07-13T06:47:04;20.40;99.90
76567;DHT22;65428;53.194;6.132;2023-07-13T06:49:30;19.80;99.90
76567;DHT22;65428;53.194;6.132;2023-07-13T06:51:55;19.50;99.90
76567;DHT22;65428;53.194;6.132;2023-07-13T06:54:21;19.20;99.90
76567;DHT22;65428;53.194;6.132;2023-07-13T06:56:47;19.30;99.90
76567;DHT22;65428;53.194;6.132;2023-07-13T06:59:13;19.80;99.90
76567;DHT22;65428;53.194;6.132;2023-07-13T07:01:39;19.60;99.90
76567;DHT22;65428;53.194;6.132;2023-07-13T07:04:05;20.10;99.90
76567;DHT22;65428;53.194;6.132;2023-07-13T07:06:31;20.20;99.90
76567;DHT22;65428;53.194;6.132;2023-07-13T07:08:56;20.70;99.90
76567;DHT22;65428;53.194;6.132;2023-07-13T07:11:24;20.30;99.90
76567;DHT22;65428;53.194;6.132;2023-07-13T07:13:51;20.80;99.90
76567;DHT22;65428;53.194;6.132;2023-07-13T07:16:18;21.20;99.90
76567;DHT22;65428;53.194;6.132;2023-07-13T07:18:44;21.20;99.90
76567;DHT22;65428;53.194;6.132;2023-07-13T07:21:11;21.00;99.90
76567;DHT22;65428;53.194;6.132;2023-07-13T07:23:37;21.00;99.90
76567;DHT22;65428;53.194;6.132;2023-07-13T07:26:03;21.60;99.90
76567;DHT22;65428;53.194;6.132;2023-07-13T07:28:29;21.10;99.90
76567;DHT22;65428;53.194;6.132;2023-07-13T07:30:57;20.80;99.90
76567;DHT22;65428;53.194;6.132;2023-07-13T07:33:23;20.80;99.90
76567;DHT22;65428;53.194;6.132;2023-07-13T07:35:50;20.70;99.90
76567;DHT22;65428;53.194;6.132;2023-07-13T07:38:16;20.10;99.90
76567;DHT22;65428;53.194;6.132;2023-07-13T07:40:42;20.20;99.90
76567;DHT22;65428;53.194;6.132;2023-07-13T07:43:11;20.20;99.90
76567;DHT22;65428;53.194;6.132;2023-07-13T07:45:39;20.50;99.90
76567;DHT22;65428;53.194;6.132;2023-07-13T07:48:06;20.30;99.90
76567;DHT22;65428;53.194;6.132;2023-07-13T07:50:32;20.50;99.90
76567;DHT22;65428;53.194;6.132;2023-07-13T07:52:58;20.50;99.90
76567;DHT22;65428;53.194;6.132;2023-07-13T07:55:25;20.40;99.90
76567;DHT22;65428;53.194;6.132;2023-07-13T07:57:56;20.10;99.90
76567;DHT22;65428;53.194;6.132;2023-07-13T08:00:22;19.70;99.90
76567;DHT22;65428;53.194;6.132;2023-07-13T08:02:48;19.30;99.90
76567;DHT22;65428;53.194;6.132;2023-07-13T08:05:14;19.30;99.90
76567;DHT22;65428;53.194;6.132;2023-07-13T08:07:40;19.00;99.90
76567;DHT22;65428;53.194;6.132;2023-07-13T08:10:07;18.70;99.90
76567;DHT22;65428;53.194;6.132;2023-07-13T08:12:37;18.90;99.90
76567;DHT22;65428;53.194;6.132;2023-07-13T08:15:03;19.10;99.90
76567;DHT22;65428;53.194;6.132;2023-07-13T08:17:30;19.00;99.90
76567;DHT22;65428;53.194;6.132;2023-07-13T08:19:56;19.30;99.90
76567;DHT22;65428;53.194;6.132;2023-07-13T08:22:22;19.60;99.90
76567;DHT22;65428;53.194;6.132;2023-07-13T08:24:48;19.80;99.90
76567;DHT22;65428;53.194;6.132;2023-07-13T08:27:20;19.80;99.90
76567;DHT22;65428;53.194;6.132;2023-07-13T08:29:47;19.80;99.90
76567;DHT22;65428;53.194;6.132;2023-07-13T08:32:14;19.90;99.90
76567;DHT22;65428;53.194;6.132;2023-07-13T08:34:40;19.80;99.90
76567;DHT22;65428;53.194;6.132;2023-07-13T08:37:06;19.40;99.90
76567;DHT22;65428;53.194;6.132;2023-07-13T08:39:33;19.20;99.90
76567;DHT22;65428;53.194;6.132;2023-07-13T08:42:07;19.40;99.90
76567;DHT22;65428;53.194;6.132;2023-07-13T08:47:22;19.50;99.90
76567;DHT22;65428;53.194;6.132;2023-07-13T08:49:49;19.90;99.90
76567;DHT22;65428;53.194;6.132;2023-07-13T08:52:37;20.40;99.90
76567;DHT22;65428;53.194;6.132;2023-07-13T08:55:21;20.50;99.90
76567;DHT22;65428;53.194;6.132;2023-07-13T08:58:02;20.80;99.90
76567;DHT22;65428;53.194;6.132;2023-07-13T09:00:38;20.80;99.90
76567;DHT22;65428;53.194;6.132;2023-07-13T09:03:16;20.80;99.90
76567;DHT22;65428;53.194;6.132;2023-07-13T09:05:54;21.20;99.90
76567;DHT22;65428;53.194;6.132;2023-07-13T09:08:51;21.30;99.90
76567;DHT22;65428;53.194;6.132;2023-07-13T09:11:49;21.40;99.90
76567;DHT22;65428;53.194;6.132;2023-07-13T09:14:40;21.40;99.90
76567;DHT22;65428;53.194;6.132;2023-07-13T09:17:17;21.70;99.90
76567;DHT22;65428;53.194;6.132;2023-07-13T09:19:46;22.10;99.00
76567;DHT22;65428;53.194;6.132;2023-07-13T09:22:17;21.80;93.90
76567;DHT22;65428;53.194;6.132;2023-07-13T09:24:52;22.70;97.50
76567;DHT22;65428;53.194;6.132;2023-07-13T09:27:23;22.40;97.20
76567;DHT22;65428;53.194;6.132;2023-07-13T09:30:02;22.50;91.10
76567;DHT22;65428;53.194;6.132;2023-07-13T09:32:31;22.10;91.90
76567;DHT22;65428;53.194;6.132;2023-07-13T09:34:58;22.20;92.00
76567;DHT22;65428;53.194;6.132;2023-07-13T09:37:30;22.30;85.90
76567;DHT22;65428;53.194;6.132;2023-07-13T09:39:57;22.30;85.40
76567;DHT22;65428;53.194;6.132;2023-07-13T09:42:25;21.90;78.00
76567;DHT22;65428;53.194;6.132;2023-07-13T09:44:54;21.50;89.10
76567;DHT22;65428;53.194;6.132;2023-07-13T09:47:23;22.20;92.40
76567;DHT22;65428;53.194;6.132;2023-07-13T09:49:59;22.20;96.70
76567;DHT22;65428;53.194;6.132;2023-07-13T09:52:26;22.40;90.80
76567;DHT22;65428;53.194;6.132;2023-07-13T09:54:54;22.50;90.10
76567;DHT22;65428;53.194;6.132;2023-07-13T09:57:26;22.80;90.00
76567;DHT22;65428;53.194;6.132;2023-07-13T09:59:54;22.50;89.20
76567;DHT22;65428;53.194;6.132;2023-07-13T10:02:34;22.40;82.80
76567;DHT22;65428;53.194;6.132;2023-07-13T10:05:04;21.90;89.70
76567;DHT22;65428;53.194;6.132;2023-07-13T10:07:31;21.80;84.40
76567;DHT22;65428;53.194;6.132;2023-07-13T10:10:00;22.00;87.40
76567;DHT22;65428;53.194;6.132;2023-07-13T10:12:30;22.20;85.20
76567;DHT22;65428;53.194;6.132;2023-07-13T10:15:02;22.40;85.60
76567;DHT22;65428;53.194;6.132;2023-07-13T10:17:32;22.30;73.60
76567;DHT22;65428;53.194;6.132;2023-07-13T10:20:04;22.00;72.60
76567;DHT22;65428;53.194;6.132;2023-07-13T10:23:02;22.00;84.40
76567;DHT22;65428;53.194;6.132;2023-07-13T10:25:32;22.40;83.80
76567;DHT22;65428;53.194;6.132;2023-07-13T10:28:28;22.80;75.10
76567;DHT22;65428;53.194;6.132;2023-07-13T10:30:56;23.10;68.70
76567;DHT22;65428;53.194;6.132;2023-07-13T10:33:24;23.40;79.70
76567;DHT22;65428;53.194;6.132;2023-07-13T10:35:54;23.80;85.50
76567;DHT22;65428;53.194;6.132;2023-07-13T10:38:23;24.20;64.90
76567;DHT22;65428;53.194;6.132;2023-07-13T10:40:58;24.40;63.70
76567;DHT22;65428;53.194;6.132;2023-07-13T10:43:28;24.20;61.50
76567;DHT22;65428;53.194;6.132;2023-07-13T10:45:59;24.20;63.10
76567;DHT22;65428;53.194;6.132;2023-07-13T10:48:26;24.50;70.60
76567;DHT22;65428;53.194;6.132;2023-07-13T10:50:53;24.70;73.10
76567;DHT22;65428;53.194;6.132;2023-07-13T10:53:34;24.80;60.20
76567;DHT22;65428;53.194;6.132;2023-07-13T10:56:01;24.80;64.00
76567;DHT22;65428;53.194;6.132;2023-07-13T10:58:40;25.20;62.90
76567;DHT22;65428;53.194;6.132;2023-07-13T11:01:14;25.10;65.80
76567;DHT22;65428;53.194;6.132;2023-07-13T11:18:51;25.80;55.60
76567;DHT22;65428;53.194;6.132;2023-07-13T11:21:20;25.90;52.90
76567;DHT22;65428;53.194;6.132;2023-07-13T11:24:17;25.50;58.90
76567;DHT22;65428;53.194;6.132;2023-07-13T11:31:41;24.90;58.50
76567;DHT22;65428;53.194;6.132;2023-07-13T11:34:13;25.00;58.30
76567;DHT22;65428;53.194;6.132;2023-07-13T11:36:43;25.20;58.90
76567;DHT22;65428;53.194;6.132;2023-07-13T11:39:24;25.40;55.50
76567;DHT22;65428;53.194;6.132;2023-07-13T11:41:53;25.50;56.60
76567;DHT22;65428;53.194;6.132;2023-07-13T11:44:23;25.60;54.70
76567;DHT22;65428;53.194;6.132;2023-07-13T11:46:52;25.60;51.80
76567;DHT22;65428;53.194;6.132;2023-07-13T11:49:19;25.40;54.40
76567;DHT22;65428;53.194;6.132;2023-07-13T11:51:46;25.70;56.60
76567;DHT22;65428;53.194;6.132;2023-07-13T11:54:33;25.70;53.00
76567;DHT22;65428;53.194;6.132;2023-07-13T11:57:01;25.60;54.70
76567;DHT22;65428;53.194;6.132;2023-07-13T11:59:32;25.50;54.70
76567;DHT22;65428;53.194;6.132;2023-07-13T12:01:59;25.50;54.10
76567;DHT22;65428;53.194;6.132;2023-07-13T12:04:28;25.90;53.40
76567;DHT22;65428;53.194;6.132;2023-07-13T12:07:11;25.60;52.50
76567;DHT22;65428;53.194;6.132;2023-07-13T12:09:40;25.70;52.60
76567;DHT22;65428;53.194;6.132;2023-07-13T12:12:12;26.00;53.90
76567;DHT22;65428;53.194;6.132;2023-07-13T12:14:38;26.10;51.30
76567;DHT22;65428;53.194;6.132;2023-07-13T12:17:20;25.60;49.50
76567;DHT22;65428;53.194;6.132;2023-07-13T12:19:47;25.30;51.90
76567;DHT22;65428;53.194;6.132;2023-07-13T12:22:16;24.80;53.00
76567;DHT22;65428;53.194;6.132;2023-07-13T12:24:43;25.10;52.20
76567;DHT22;65428;53.194;6.132;2023-07-13T12:27:28;25.20;52.40
76567;DHT22;65428;53.194;6.132;2023-07-13T12:33:07;26.00;51.90
76567;DHT22;65428;53.194;6.132;2023-07-13T12:35:55;26.20;50.40
76567;DHT22;65428;53.194;6.132;2023-07-13T12:38:21;26.40;49.90
76567;DHT22;65428;53.194;6.132;2023-07-13T12:40:50;26.70;51.80
76567;DHT22;65428;53.194;6.132;2023-07-13T12:43:17;27.00;54.50
76567;DHT22;65428;53.194;6.132;2023-07-13T12:46:01;27.30;48.60
76567;DHT22;65428;53.194;6.132;2023-07-13T12:48:27;27.20;51.20
76567;DHT22;65428;53.194;6.132;2023-07-13T12:50:55;27.10;51.20
76567;DHT22;65428;53.194;6.132;2023-07-13T12:53:29;26.90;49.00
76567;DHT22;65428;53.194;6.132;2023-07-13T12:56:02;26.90;50.20
76567;DHT22;65428;53.194;6.132;2023-07-13T12:58:32;26.90;49.60
76567;DHT22;65428;53.194;6.132;2023-07-13T13:01:02;26.70;50.30
76567;DHT22;65428;53.194;6.132;2023-07-13T13:03:38;26.50;51.00
76567;DHT22;65428;53.194;6.132;2023-07-13T13:06:25;25.90;52.30
76567;DHT22;65428;53.194;6.132;2023-07-13T13:08:53;25.60;55.00
76567;DHT22;65428;53.194;6.132;2023-07-13T13:11:21;25.30;57.00
76567;DHT22;65428;53.194;6.132;2023-07-13T13:13:49;25.40;59.70
76567;DHT22;65428;53.194;6.132;2023-07-13T13:16:23;25.10;57.00
76567;DHT22;65428;53.194;6.132;2023-07-13T13:18:52;24.50;56.90
76567;DHT22;65428;53.194;6.132;2023-07-13T13:21:20;24.80;60.20
76567;DHT22;65428;53.194;6.132;2023-07-13T13:23:46;25.00;58.80
76567;DHT22;65428;53.194;6.132;2023-07-13T13:26:15;24.90;56.00
76567;DHT22;65428;53.194;6.132;2023-07-13T13:28:43;24.70;59.30
76567;DHT22;65428;53.194;6.132;2023-07-13T13:31:10;24.40;58.70
76567;DHT22;65428;53.194;6.132;2023-07-13T13:33:39;23.80;58.50
76567;DHT22;65428;53.194;6.132;2023-07-13T13:36:20;23.50;63.40
76567;DHT22;65428;53.194;6.132;2023-07-13T13:38:47;23.50;65.20
76567;DHT22;65428;53.194;6.132;2023-07-13T13:41:14;23.90;65.10
76567;DHT22;65428;53.194;6.132;2023-07-13T13:43:41;24.60;67.50
76567;DHT22;65428;53.194;6.132;2023-07-13T13:46:18;24.70;64.40
76567;DHT22;65428;53.194;6.132;2023-07-13T13:48:45;25.00;63.50
76567;DHT22;65428;53.194;6.132;2023-07-13T13:51:17;25.40;60.70
76567;DHT22;65428;53.194;6.132;2023-07-13T13:53:44;26.40;71.60
76567;DHT22;65428;53.194;6.132;2023-07-13T13:56:11;26.90;57.10
76567;DHT22;65428;53.194;6.132;2023-07-13T13:58:37;27.30;53.40
76567;DHT22;65428;53.194;6.132;2023-07-13T14:01:03;27.70;50.20
76567;DHT22;65428;53.194;6.132;2023-07-13T14:03:34;27.70;48.20
76567;DHT22;65428;53.194;6.132;2023-07-13T14:06:00;27.10;47.50
76567;DHT22;65428;53.194;6.132;2023-07-13T14:08:26;27.10;49.50
76567;DHT22;65428;53.194;6.132;2023-07-13T14:10:55;27.30;48.80
76567;DHT22;65428;53.194;6.132;2023-07-13T14:13:25;27.40;48.30
76567;DHT22;65428;53.194;6.132;2023-07-13T14:15:52;27.80;52.00
76567;DHT22;65428;53.194;6.132;2023-07-13T14:18:18;27.50;50.70
76567;DHT22;65428;53.194;6.132;2023-07-13T14:20:48;27.00;51.60
76567;DHT22;65428;53.194;6.132;2023-07-13T14:23:15;26.70;55.30
76567;DHT22;65428;53.194;6.132;2023-07-13T14:25:42;26.40;51.60
76567;DHT22;65428;53.194;6.132;2023-07-13T14:28:27;25.80;55.20
76567;DHT22;65428;53.194;6.132;2023-07-13T14:30:54;25.50;57.80
76567;DHT22;65428;53.194;6.132;2023-07-13T14:33:22;25.10;56.00
76567;DHT22;65428;53.194;6.132;2023-07-13T14:35:49;25.00;60.70
76567;DHT22;65428;53.194;6.132;2023-07-13T14:38:17;24.90;68.20
76567;DHT22;65428;53.194;6.132;2023-07-13T14:40:43;23.90;64.30
76567;DHT22;65428;53.194;6.132;2023-07-13T14:43:13;23.90;68.30
76567;DHT22;65428;53.194;6.132;2023-07-13T14:45:44;24.00;70.10
76567;DHT22;65428;53.194;6.132;2023-07-13T14:48:23;23.50;69.20
76567;DHT22;65428;53.194;6.132;2023-07-13T14:50:57;23.50;73.70
76567;DHT22;65428;53.194;6.132;2023-07-13T14:53:25;23.20;77.30
76567;DHT22;65428;53.194;6.132;2023-07-13T14:55:53;23.20;73.40
76567;DHT22;65428;53.194;6.132;2023-07-13T14:58:19;23.20;79.50
76567;DHT22;65428;53.194;6.132;2023-07-13T15:00:45;23.30;76.70
76567;DHT22;65428;53.194;6.132;2023-07-13T15:03:21;23.50;73.10
76567;DHT22;65428;53.194;6.132;2023-07-13T15:05:47;23.10;73.50
76567;DHT22;65428;53.194;6.132;2023-07-13T15:08:15;23.00;74.00
76567;DHT22;65428;53.194;6.132;2023-07-13T15:10:40;22.80;78.50
76567;DHT22;65428;53.194;6.132;2023-07-13T15:13:16;22.80;79.30
76567;DHT22;65428;53.194;6.132;2023-07-13T15:15:45;22.60;83.80
76567;DHT22;65428;53.194;6.132;2023-07-13T15:18:13;22.60;76.30
76567;DHT22;65428;53.194;6.132;2023-07-13T15:20:39;22.50;84.40
76567;DHT22;65428;53.194;6.132;2023-07-13T15:23:05;22.70;85.60
76567;DHT22;65428;53.194;6.132;2023-07-13T15:25:33;22.90;76.20
76567;DHT22;65428;53.194;6.132;2023-07-13T15:28:00;22.60;80.40
76567;DHT22;65428;53.194;6.132;2023-07-13T15:30:29;22.40;84.90
76567;DHT22;65428;53.194;6.132;2023-07-13T15:32:58;22.10;85.30
76567;DHT22;65428;53.194;6.132;2023-07-13T15:35:27;22.20;90.40
76567;DHT22;65428;53.194;6.132;2023-07-13T15:37:53;22.30;91.10
76567;DHT22;65428;53.194;6.132;2023-07-13T15:40:20;22.30;96.10
76567;DHT22;65428;53.194;6.132;2023-07-13T15:42:50;22.30;91.00
76567;DHT22;65428;53.194;6.132;2023-07-13T15:45:19;22.40;85.60
76567;DHT22;65428;53.194;6.132;2023-07-13T15:47:47;22.50;90.30
76567;DHT22;65428;53.194;6.132;2023-07-13T15:50:14;22.60;93.50
76567;DHT22;65428;53.194;6.132;2023-07-13T15:52:41;22.70;82.30
76567;DHT22;65428;53.194;6.132;2023-07-13T15:55:13;22.80;82.20
76567;DHT22;65428;53.194;6.132;2023-07-13T15:57:46;22.80;90.90
76567;DHT22;65428;53.194;6.132;2023-07-13T16:00:22;22.90;79.10
76567;DHT22;65428;53.194;6.132;2023-07-13T16:02:50;22.80;81.40
76567;DHT22;65428;53.194;6.132;2023-07-13T16:05:17;22.60;78.40